Strait of Georgia - south of Nanaimo: Past 24 Hour Conditions

 

La Perouse Bank - 46206

12:00 PM PDT 20 July 2018Buoy position: 48.83N 126.0W
Disclaimer

This table is a summary of hourly weather conditions for the past 24 hours.
Please note that these observations might not always be representative of weather conditions over their associated marine area.

Date / Time
(PDT)
Wind(knots) Wave height(m) Wave period(s) Pressure(kPa) Air tempC) Water tempC)
20 July 2018
12:00 N 4 gust 8 1.8 7.0 102.3 14 17
11:00 N 8 gust 12 1.8 7.0 102.3 13 17
10:00 NNW 10 gust 12 1.8 6.0 102.2 13 16
9:00 NNW 14 gust 18 1.9 8.0 102.2 13 19
8:00 NW 16 gust 19 1.9 6.0 102.2 13 19
7:00 NW 18 gust 21 2.0 7.0 102.2 13 17
6:00 NW 18 gust 21 2.2 7.0 102.1 13 15
5:00 NW 19 gust 23 2.3 7.0 102.1 13 15
4:00 NW 21 gust 25 2.3 7.0 102.1 13 15
3:00 NW 21 gust 25 2.6 7.0 102.1 13 16
2:00 NW 19 gust 23 2.8 7.0 102.1 13 17
1:00 NW 21 gust 25 2.7 7.0 102.1 14 14
0:00 NW 21 gust 27 3.0 8.0 102.1 14 14
19 July 2018
23:00 NW 21 gust 29 2.9 7.0 102.1 14 14
22:00 WNW 21 gust 27 2.7 7.0 102.1 14 14
21:00 WNW 19 gust 25 2.9 7.0 102.1 14 14
20:00 WNW 19 gust 25 2.4 6.0 102.1 14 14
19:00 WNW 19 gust 25 2.2 7.0 102.1 14 15
18:00 WNW 19 gust 25 2.3 7.0 102.2 14 15
17:00 WNW 21 gust 25 2.1 6.0 102.2 14 15
16:00 WNW 19 gust 23 2.0 6.0 102.3 14 15
15:00 WNW 18 gust 23 2.1 6.0 102.3 14 15
14:00 WNW 16 gust 18 1.9 7.0 102.3 14 15
13:00 WNW 14 gust 18 1.8 7.0 102.3 14 15
12:00 NW 14 gust 16 2.0 7.0 102.3 14 15

Zoom-in to make a selection

Map of Pacific - South Coast marine weather areas South Nomad - 46036 Sentry Shoal - 46131 South Brooks - 46132 Halibut Bank - 46146 South Moresby - 46147 South Hecate Strait - 46185 West Sea Otter - 46204 La Perouse Bank - 46206 East Dellwood - 46207 Discovery Island Esquimalt Harbour Kelp Reefs Malahat Race Rocks Lightstation Saturna Island Sheringham Point University of Victoria Victoria Gonzales Victoria Int'l Airport Ballenas Islands Campbell River Airport Comox Airport Entrance Island Fanny Island Nanaimo Airport Port Hardy Airport Sisters Islets Estevan Point Port Alberni Sartine Island Solander Island Tofino Airport Grief Point Howe Sound - Pam Rocks Powell River Airport Sechelt Squamish Airport Cape St.James Bella Bella Airport Bella Coola Airport Cathedral Point Herbert Island Point Atkinson Sand Heads Lightstation Tsawwassen Ferry Terminal Vancouver Int'l Airport Vancouver Harbour West Vancouver
Legend:
buoy Buoy
land station Land Station

Pacific - South Coast Area

Another Region

What we are doing

Features

Follow us on Twitter!

Get timely local #weather alerts directly to your Twitter feed

Lightning Safety

When thunder roars, GO INDOORS!

UV Index and sun protection

Be weather wise!

Date modified: